sensor_id;sensor_type;location;lat;lon;timestamp;P1;durP1;ratioP1;P2;durP2;ratioP2
16870;SDS011;8552;48.120;-1.456;2023-03-03T00:01:32;40.30;;;21.10;;
16870;SDS011;8552;48.120;-1.456;2023-03-03T00:03:58;43.60;;;20.83;;
16870;SDS011;8552;48.120;-1.456;2023-03-03T00:06:24;38.23;;;21.03;;
16870;SDS011;8552;48.120;-1.456;2023-03-03T00:08:50;44.37;;;21.57;;
16870;SDS011;8552;48.120;-1.456;2023-03-03T00:11:17;39.00;;;18.83;;
16870;SDS011;8552;48.120;-1.456;2023-03-03T00:13:44;43.50;;;20.57;;
16870;SDS011;8552;48.120;-1.456;2023-03-03T00:16:13;38.93;;;20.23;;
16870;SDS011;8552;48.120;-1.456;2023-03-03T00:18:40;38.47;;;20.30;;
16870;SDS011;8552;48.120;-1.456;2023-03-03T00:24:17;36.63;;;20.33;;
16870;SDS011;8552;48.120;-1.456;2023-03-03T00:26:50;36.00;;;19.50;;
16870;SDS011;8552;48.120;-1.456;2023-03-03T00:34:40;43.03;;;21.27;;
16870;SDS011;8552;48.120;-1.456;2023-03-03T00:40:07;38.57;;;20.47;;
16870;SDS011;8552;48.120;-1.456;2023-03-03T00:42:45;42.23;;;21.17;;
16870;SDS011;8552;48.120;-1.456;2023-03-03T00:47:51;38.67;;;20.77;;
16870;SDS011;8552;48.120;-1.456;2023-03-03T00:50:27;43.07;;;21.50;;
16870;SDS011;8552;48.120;-1.456;2023-03-03T00:53:04;44.47;;;21.07;;
16870;SDS011;8552;48.120;-1.456;2023-03-03T00:55:35;37.07;;;21.63;;
16870;SDS011;8552;48.120;-1.456;2023-03-03T00:58:01;39.37;;;21.37;;
16870;SDS011;8552;48.120;-1.456;2023-03-03T01:00:27;41.93;;;20.97;;
16870;SDS011;8552;48.120;-1.456;2023-03-03T01:02:53;46.57;;;22.07;;
16870;SDS011;8552;48.120;-1.456;2023-03-03T01:05:19;41.57;;;21.40;;
16870;SDS011;8552;48.120;-1.456;2023-03-03T01:07:45;41.50;;;21.93;;
16870;SDS011;8552;48.120;-1.456;2023-03-03T01:10:11;39.83;;;20.93;;
16870;SDS011;8552;48.120;-1.456;2023-03-03T01:12:37;46.07;;;21.30;;
16870;SDS011;8552;48.120;-1.456;2023-03-03T01:15:06;41.53;;;21.27;;
16870;SDS011;8552;48.120;-1.456;2023-03-03T01:17:34;45.90;;;21.40;;
16870;SDS011;8552;48.120;-1.456;2023-03-03T01:20:00;34.13;;;19.67;;
16870;SDS011;8552;48.120;-1.456;2023-03-03T01:22:27;41.93;;;21.97;;
16870;SDS011;8552;48.120;-1.456;2023-03-03T01:24:52;39.03;;;21.47;;
16870;SDS011;8552;48.120;-1.456;2023-03-03T01:27:18;47.77;;;22.33;;
16870;SDS011;8552;48.120;-1.456;2023-03-03T01:29:44;40.13;;;21.67;;
16870;SDS011;8552;48.120;-1.456;2023-03-03T01:32:09;43.20;;;22.00;;
16870;SDS011;8552;48.120;-1.456;2023-03-03T01:34:35;47.63;;;24.50;;
16870;SDS011;8552;48.120;-1.456;2023-03-03T01:37:01;44.37;;;22.60;;
16870;SDS011;8552;48.120;-1.456;2023-03-03T01:39:26;46.87;;;23.03;;
16870;SDS011;8552;48.120;-1.456;2023-03-03T01:41:52;40.67;;;21.43;;
16870;SDS011;8552;48.120;-1.456;2023-03-03T01:44:18;43.20;;;22.13;;
16870;SDS011;8552;48.120;-1.456;2023-03-03T01:49:22;44.00;;;22.30;;
16870;SDS011;8552;48.120;-1.456;2023-03-03T01:51:57;47.50;;;24.43;;
16870;SDS011;8552;48.120;-1.456;2023-03-03T01:54:46;46.67;;;23.90;;
16870;SDS011;8552;48.120;-1.456;2023-03-03T01:57:18;50.53;;;23.23;;
16870;SDS011;8552;48.120;-1.456;2023-03-03T01:59:49;59.03;;;24.13;;
16870;SDS011;8552;48.120;-1.456;2023-03-03T02:02:16;43.43;;;21.27;;
16870;SDS011;8552;48.120;-1.456;2023-03-03T02:04:42;43.37;;;22.13;;
16870;SDS011;8552;48.120;-1.456;2023-03-03T02:07:09;49.17;;;23.33;;
16870;SDS011;8552;48.120;-1.456;2023-03-03T02:09:39;44.43;;;22.27;;
16870;SDS011;8552;48.120;-1.456;2023-03-03T02:12:14;43.47;;;23.33;;
16870;SDS011;8552;48.120;-1.456;2023-03-03T02:14:43;40.13;;;21.80;;
16870;SDS011;8552;48.120;-1.456;2023-03-03T02:17:09;43.40;;;21.77;;
16870;SDS011;8552;48.120;-1.456;2023-03-03T02:25:44;44.20;;;23.20;;
16870;SDS011;8552;48.120;-1.456;2023-03-03T02:28:22;51.37;;;21.53;;
16870;SDS011;8552;48.120;-1.456;2023-03-03T02:30:52;46.63;;;24.37;;
16870;SDS011;8552;48.120;-1.456;2023-03-03T02:33:19;43.63;;;22.83;;
16870;SDS011;8552;48.120;-1.456;2023-03-03T02:35:45;44.53;;;20.63;;
16870;SDS011;8552;48.120;-1.456;2023-03-03T02:40:42;46.33;;;23.10;;
16870;SDS011;8552;48.120;-1.456;2023-03-03T02:43:13;44.70;;;22.17;;
16870;SDS011;8552;48.120;-1.456;2023-03-03T02:45:43;51.27;;;23.47;;
16870;SDS011;8552;48.120;-1.456;2023-03-03T02:48:10;50.03;;;25.00;;
16870;SDS011;8552;48.120;-1.456;2023-03-03T02:50:36;56.57;;;26.27;;
16870;SDS011;8552;48.120;-1.456;2023-03-03T02:53:02;46.00;;;23.47;;
16870;SDS011;8552;48.120;-1.456;2023-03-03T02:55:28;55.77;;;24.50;;
16870;SDS011;8552;48.120;-1.456;2023-03-03T02:57:53;46.67;;;25.20;;
16870;SDS011;8552;48.120;-1.456;2023-03-03T03:00:19;48.57;;;25.03;;
16870;SDS011;8552;48.120;-1.456;2023-03-03T03:02:45;52.27;;;27.33;;
16870;SDS011;8552;48.120;-1.456;2023-03-03T03:05:11;55.17;;;26.73;;
16870;SDS011;8552;48.120;-1.456;2023-03-03T03:07:37;49.67;;;25.17;;
16870;SDS011;8552;48.120;-1.456;2023-03-03T03:10:03;53.73;;;24.77;;
16870;SDS011;8552;48.120;-1.456;2023-03-03T03:12:29;56.03;;;25.07;;
16870;SDS011;8552;48.120;-1.456;2023-03-03T03:14:55;47.57;;;23.43;;
16870;SDS011;8552;48.120;-1.456;2023-03-03T03:17:21;52.77;;;26.53;;
16870;SDS011;8552;48.120;-1.456;2023-03-03T03:19:46;50.43;;;23.23;;
16870;SDS011;8552;48.120;-1.456;2023-03-03T03:22:12;52.93;;;23.57;;
16870;SDS011;8552;48.120;-1.456;2023-03-03T03:24:38;49.37;;;22.63;;
16870;SDS011;8552;48.120;-1.456;2023-03-03T03:27:04;48.23;;;22.57;;
16870;SDS011;8552;48.120;-1.456;2023-03-03T03:29:29;49.23;;;23.17;;
16870;SDS011;8552;48.120;-1.456;2023-03-03T03:31:55;51.20;;;24.33;;
16870;SDS011;8552;48.120;-1.456;2023-03-03T03:34:20;50.23;;;25.33;;
16870;SDS011;8552;48.120;-1.456;2023-03-03T03:36:46;48.83;;;24.80;;
16870;SDS011;8552;48.120;-1.456;2023-03-03T03:39:12;55.93;;;25.10;;
16870;SDS011;8552;48.120;-1.456;2023-03-03T03:41:37;49.90;;;23.80;;
16870;SDS011;8552;48.120;-1.456;2023-03-03T03:44:03;46.07;;;22.23;;
16870;SDS011;8552;48.120;-1.456;2023-03-03T03:46:29;51.07;;;23.70;;
16870;SDS011;8552;48.120;-1.456;2023-03-03T03:48:55;57.63;;;25.63;;
16870;SDS011;8552;48.120;-1.456;2023-03-03T03:51:20;53.07;;;25.30;;
16870;SDS011;8552;48.120;-1.456;2023-03-03T03:53:46;50.60;;;26.53;;
16870;SDS011;8552;48.120;-1.456;2023-03-03T03:56:12;45.77;;;24.63;;
16870;SDS011;8552;48.120;-1.456;2023-03-03T03:58:39;51.83;;;26.60;;
16870;SDS011;8552;48.120;-1.456;2023-03-03T04:01:06;60.63;;;27.23;;
16870;SDS011;8552;48.120;-1.456;2023-03-03T04:03:32;57.13;;;26.23;;
16870;SDS011;8552;48.120;-1.456;2023-03-03T04:05:58;56.90;;;26.03;;
16870;SDS011;8552;48.120;-1.456;2023-03-03T04:08:24;51.53;;;25.80;;
16870;SDS011;8552;48.120;-1.456;2023-03-03T04:10:50;50.53;;;26.20;;
16870;SDS011;8552;48.120;-1.456;2023-03-03T04:13:16;46.80;;;24.60;;
16870;SDS011;8552;48.120;-1.456;2023-03-03T04:15:41;48.57;;;27.03;;
16870;SDS011;8552;48.120;-1.456;2023-03-03T04:18:07;55.50;;;25.57;;
16870;SDS011;8552;48.120;-1.456;2023-03-03T04:20:33;53.17;;;25.77;;
16870;SDS011;8552;48.120;-1.456;2023-03-03T04:22:58;52.50;;;27.10;;
16870;SDS011;8552;48.120;-1.456;2023-03-03T04:25:24;61.60;;;30.00;;
16870;SDS011;8552;48.120;-1.456;2023-03-03T04:27:50;53.43;;;28.10;;
16870;SDS011;8552;48.120;-1.456;2023-03-03T04:30:17;56.13;;;28.17;;
16870;SDS011;8552;48.120;-1.456;2023-03-03T04:32:43;64.00;;;28.00;;
16870;SDS011;8552;48.120;-1.456;2023-03-03T04:35:09;59.57;;;28.37;;
16870;SDS011;8552;48.120;-1.456;2023-03-03T04:37:35;55.40;;;27.57;;
16870;SDS011;8552;48.120;-1.456;2023-03-03T04:40:03;51.93;;;25.37;;
16870;SDS011;8552;48.120;-1.456;2023-03-03T04:42:31;52.50;;;28.37;;
16870;SDS011;8552;48.120;-1.456;2023-03-03T04:44:57;54.43;;;28.03;;
16870;SDS011;8552;48.120;-1.456;2023-03-03T04:47:23;57.03;;;27.10;;
16870;SDS011;8552;48.120;-1.456;2023-03-03T04:49:48;59.23;;;27.53;;
16870;SDS011;8552;48.120;-1.456;2023-03-03T04:52:14;60.90;;;27.57;;
16870;SDS011;8552;48.120;-1.456;2023-03-03T04:54:39;64.53;;;30.83;;
16870;SDS011;8552;48.120;-1.456;2023-03-03T04:57:05;61.80;;;29.97;;
16870;SDS011;8552;48.120;-1.456;2023-03-03T04:59:33;61.97;;;28.93;;
16870;SDS011;8552;48.120;-1.456;2023-03-03T05:02:00;65.07;;;29.43;;
16870;SDS011;8552;48.120;-1.456;2023-03-03T05:04:25;56.27;;;28.00;;
16870;SDS011;8552;48.120;-1.456;2023-03-03T05:06:51;59.43;;;29.77;;
16870;SDS011;8552;48.120;-1.456;2023-03-03T05:09:17;62.97;;;30.83;;
16870;SDS011;8552;48.120;-1.456;2023-03-03T05:11:42;74.87;;;31.13;;
16870;SDS011;8552;48.120;-1.456;2023-03-03T05:14:08;62.60;;;29.80;;
16870;SDS011;8552;48.120;-1.456;2023-03-03T05:16:34;61.97;;;28.53;;
16870;SDS011;8552;48.120;-1.456;2023-03-03T05:18:59;61.17;;;29.17;;
16870;SDS011;8552;48.120;-1.456;2023-03-03T05:21:25;60.67;;;28.80;;
16870;SDS011;8552;48.120;-1.456;2023-03-03T05:23:51;59.10;;;29.00;;
16870;SDS011;8552;48.120;-1.456;2023-03-03T05:26:16;64.57;;;31.63;;
16870;SDS011;8552;48.120;-1.456;2023-03-03T05:28:42;67.97;;;33.33;;
16870;SDS011;8552;48.120;-1.456;2023-03-03T05:31:08;68.90;;;33.13;;
16870;SDS011;8552;48.120;-1.456;2023-03-03T05:33:34;80.20;;;35.40;;
16870;SDS011;8552;48.120;-1.456;2023-03-03T05:35:59;72.83;;;34.17;;
16870;SDS011;8552;48.120;-1.456;2023-03-03T05:38:25;67.87;;;29.90;;
16870;SDS011;8552;48.120;-1.456;2023-03-03T05:40:51;73.57;;;34.13;;
16870;SDS011;8552;48.120;-1.456;2023-03-03T05:43:17;64.03;;;30.17;;
16870;SDS011;8552;48.120;-1.456;2023-03-03T05:45:43;80.50;;;32.83;;
16870;SDS011;8552;48.120;-1.456;2023-03-03T05:48:09;68.07;;;33.93;;
16870;SDS011;8552;48.120;-1.456;2023-03-03T05:50:35;75.73;;;34.50;;
16870;SDS011;8552;48.120;-1.456;2023-03-03T05:53:01;77.87;;;35.70;;
16870;SDS011;8552;48.120;-1.456;2023-03-03T05:55:27;74.83;;;33.67;;
16870;SDS011;8552;48.120;-1.456;2023-03-03T05:57:53;70.97;;;35.80;;
16870;SDS011;8552;48.120;-1.456;2023-03-03T06:00:20;85.93;;;33.63;;
16870;SDS011;8552;48.120;-1.456;2023-03-03T06:02:46;77.87;;;35.00;;
16870;SDS011;8552;48.120;-1.456;2023-03-03T06:05:12;77.20;;;36.57;;
16870;SDS011;8552;48.120;-1.456;2023-03-03T06:07:38;74.83;;;34.90;;
16870;SDS011;8552;48.120;-1.456;2023-03-03T06:10:04;89.23;;;36.80;;
16870;SDS011;8552;48.120;-1.456;2023-03-03T06:12:31;79.07;;;38.03;;
16870;SDS011;8552;48.120;-1.456;2023-03-03T06:14:57;73.13;;;33.23;;
16870;SDS011;8552;48.120;-1.456;2023-03-03T06:17:22;83.13;;;36.90;;
16870;SDS011;8552;48.120;-1.456;2023-03-03T06:19:48;79.93;;;34.50;;
16870;SDS011;8552;48.120;-1.456;2023-03-03T06:22:14;83.40;;;37.43;;
16870;SDS011;8552;48.120;-1.456;2023-03-03T06:24:40;80.87;;;38.23;;
16870;SDS011;8552;48.120;-1.456;2023-03-03T06:27:06;85.37;;;38.40;;
16870;SDS011;8552;48.120;-1.456;2023-03-03T06:29:31;89.07;;;39.20;;
16870;SDS011;8552;48.120;-1.456;2023-03-03T06:31:57;83.27;;;38.93;;
16870;SDS011;8552;48.120;-1.456;2023-03-03T06:34:23;85.83;;;37.97;;
16870;SDS011;8552;48.120;-1.456;2023-03-03T06:36:49;85.73;;;39.50;;
16870;SDS011;8552;48.120;-1.456;2023-03-03T06:39:14;80.23;;;36.13;;
16870;SDS011;8552;48.120;-1.456;2023-03-03T06:41:40;89.60;;;40.40;;
16870;SDS011;8552;48.120;-1.456;2023-03-03T06:44:06;84.83;;;34.90;;
16870;SDS011;8552;48.120;-1.456;2023-03-03T06:46:31;80.97;;;36.50;;
16870;SDS011;8552;48.120;-1.456;2023-03-03T06:48:57;96.20;;;43.00;;
16870;SDS011;8552;48.120;-1.456;2023-03-03T06:51:24;85.60;;;39.37;;
16870;SDS011;8552;48.120;-1.456;2023-03-03T06:53:55;92.23;;;41.70;;
16870;SDS011;8552;48.120;-1.456;2023-03-03T06:56:24;86.20;;;40.67;;
16870;SDS011;8552;48.120;-1.456;2023-03-03T06:58:57;90.93;;;42.80;;
16870;SDS011;8552;48.120;-1.456;2023-03-03T07:01:24;96.50;;;42.13;;
16870;SDS011;8552;48.120;-1.456;2023-03-03T07:03:51;89.03;;;42.93;;
16870;SDS011;8552;48.120;-1.456;2023-03-03T07:06:23;98.47;;;43.57;;
16870;SDS011;8552;48.120;-1.456;2023-03-03T07:08:52;104.13;;;49.17;;
16870;SDS011;8552;48.120;-1.456;2023-03-03T07:11:19;99.87;;;46.43;;
16870;SDS011;8552;48.120;-1.456;2023-03-03T07:13:50;91.43;;;41.17;;
16870;SDS011;8552;48.120;-1.456;2023-03-03T07:16:18;92.57;;;41.97;;
16870;SDS011;8552;48.120;-1.456;2023-03-03T07:18:51;100.73;;;42.50;;
16870;SDS011;8552;48.120;-1.456;2023-03-03T07:21:20;88.73;;;40.40;;
16870;SDS011;8552;48.120;-1.456;2023-03-03T07:23:54;99.27;;;43.23;;
16870;SDS011;8552;48.120;-1.456;2023-03-03T07:26:26;97.37;;;43.97;;
16870;SDS011;8552;48.120;-1.456;2023-03-03T07:31:26;95.77;;;44.17;;
16870;SDS011;8552;48.120;-1.456;2023-03-03T07:33:59;95.43;;;44.00;;
16870;SDS011;8552;48.120;-1.456;2023-03-03T07:36:28;97.03;;;42.27;;
16870;SDS011;8552;48.120;-1.456;2023-03-03T07:38:58;102.23;;;41.77;;
16870;SDS011;8552;48.120;-1.456;2023-03-03T07:41:26;100.63;;;46.23;;
16870;SDS011;8552;48.120;-1.456;2023-03-03T07:46:28;103.40;;;46.83;;
16870;SDS011;8552;48.120;-1.456;2023-03-03T07:49:01;103.83;;;44.53;;
16870;SDS011;8552;48.120;-1.456;2023-03-03T07:51:40;103.70;;;44.57;;
16870;SDS011;8552;48.120;-1.456;2023-03-03T07:56:56;105.07;;;47.17;;
16870;SDS011;8552;48.120;-1.456;2023-03-03T07:59:49;105.93;;;47.13;;
16870;SDS011;8552;48.120;-1.456;2023-03-03T08:04:52;96.97;;;43.67;;
16870;SDS011;8552;48.120;-1.456;2023-03-03T08:07:19;112.07;;;49.23;;
16870;SDS011;8552;48.120;-1.456;2023-03-03T08:09:57;114.93;;;51.70;;
16870;SDS011;8552;48.120;-1.456;2023-03-03T08:15:18;110.73;;;47.20;;
16870;SDS011;8552;48.120;-1.456;2023-03-03T08:17:55;112.57;;;53.03;;
16870;SDS011;8552;48.120;-1.456;2023-03-03T08:23:09;104.33;;;47.77;;
16870;SDS011;8552;48.120;-1.456;2023-03-03T08:25:35;107.13;;;47.43;;
16870;SDS011;8552;48.120;-1.456;2023-03-03T08:28:02;97.40;;;45.53;;
16870;SDS011;8552;48.120;-1.456;2023-03-03T08:30:27;102.50;;;42.53;;
16870;SDS011;8552;48.120;-1.456;2023-03-03T08:32:54;102.93;;;45.43;;
16870;SDS011;8552;48.120;-1.456;2023-03-03T08:35:20;105.20;;;48.17;;
16870;SDS011;8552;48.120;-1.456;2023-03-03T08:37:46;102.57;;;48.10;;
16870;SDS011;8552;48.120;-1.456;2023-03-03T08:40:11;95.63;;;44.67;;
16870;SDS011;8552;48.120;-1.456;2023-03-03T08:42:37;91.50;;;41.13;;
16870;SDS011;8552;48.120;-1.456;2023-03-03T08:45:03;110.27;;;50.20;;
16870;SDS011;8552;48.120;-1.456;2023-03-03T08:47:29;99.40;;;46.10;;
16870;SDS011;8552;48.120;-1.456;2023-03-03T08:49:55;89.83;;;43.80;;
16870;SDS011;8552;48.120;-1.456;2023-03-03T08:52:20;93.80;;;42.23;;
16870;SDS011;8552;48.120;-1.456;2023-03-03T08:54:46;88.83;;;40.90;;
16870;SDS011;8552;48.120;-1.456;2023-03-03T08:57:11;91.03;;;41.57;;
16870;SDS011;8552;48.120;-1.456;2023-03-03T08:59:37;79.70;;;38.50;;
16870;SDS011;8552;48.120;-1.456;2023-03-03T09:02:06;84.77;;;37.47;;
16870;SDS011;8552;48.120;-1.456;2023-03-03T09:04:32;79.03;;;40.20;;
16870;SDS011;8552;48.120;-1.456;2023-03-03T09:06:58;81.63;;;39.10;;
16870;SDS011;8552;48.120;-1.456;2023-03-03T09:09:24;77.93;;;38.47;;
16870;SDS011;8552;48.120;-1.456;2023-03-03T09:11:52;77.17;;;37.93;;
16870;SDS011;8552;48.120;-1.456;2023-03-03T09:14:22;78.87;;;39.23;;
16870;SDS011;8552;48.120;-1.456;2023-03-03T09:16:53;74.33;;;35.57;;
16870;SDS011;8552;48.120;-1.456;2023-03-03T09:19:30;77.00;;;37.20;;
16870;SDS011;8552;48.120;-1.456;2023-03-03T09:21:58;69.70;;;35.03;;
16870;SDS011;8552;48.120;-1.456;2023-03-03T09:24:35;67.03;;;32.93;;
16870;SDS011;8552;48.120;-1.456;2023-03-03T09:27:01;68.70;;;28.87;;
16870;SDS011;8552;48.120;-1.456;2023-03-03T09:29:36;55.27;;;30.33;;
16870;SDS011;8552;48.120;-1.456;2023-03-03T09:32:44;60.23;;;29.70;;
16870;SDS011;8552;48.120;-1.456;2023-03-03T09:37:50;56.27;;;29.77;;
16870;SDS011;8552;48.120;-1.456;2023-03-03T09:40:31;56.37;;;30.17;;
16870;SDS011;8552;48.120;-1.456;2023-03-03T09:57:16;55.50;;;29.87;;
16870;SDS011;8552;48.120;-1.456;2023-03-03T10:00:17;52.43;;;28.97;;
16870;SDS011;8552;48.120;-1.456;2023-03-03T10:08:42;52.20;;;28.17;;
16870;SDS011;8552;48.120;-1.456;2023-03-03T10:20:16;43.30;;;25.47;;
16870;SDS011;8552;48.120;-1.456;2023-03-03T10:25:45;53.17;;;25.73;;
16870;SDS011;8552;48.120;-1.456;2023-03-03T10:28:41;43.70;;;23.77;;
16870;SDS011;8552;48.120;-1.456;2023-03-03T10:36:50;43.70;;;25.10;;
16870;SDS011;8552;48.120;-1.456;2023-03-03T10:58:54;34.63;;;21.40;;
16870;SDS011;8552;48.120;-1.456;2023-03-03T11:01:48;33.33;;;19.73;;
16870;SDS011;8552;48.120;-1.456;2023-03-03T11:09:44;33.40;;;19.70;;
16870;SDS011;8552;48.120;-1.456;2023-03-03T11:12:42;30.57;;;19.53;;
16870;SDS011;8552;48.120;-1.456;2023-03-03T11:29:09;29.10;;;18.33;;
16870;SDS011;8552;48.120;-1.456;2023-03-03T11:34:28;33.15;;;20.10;;
16870;SDS011;8552;48.120;-1.456;2023-03-03T11:37:19;31.15;;;19.05;;
16870;SDS011;8552;48.120;-1.456;2023-03-03T11:39:52;29.40;;;18.40;;
16870;SDS011;8552;48.120;-1.456;2023-03-03T11:42:33;29.25;;;18.83;;
16870;SDS011;8552;48.120;-1.456;2023-03-03T11:45:16;35.78;;;19.83;;
16870;SDS011;8552;48.120;-1.456;2023-03-03T11:47:50;32.22;;;20.08;;
16870;SDS011;8552;48.120;-1.456;2023-03-03T11:51:12;34.33;;;21.13;;
16870;SDS011;8552;48.120;-1.456;2023-03-03T12:04:02;28.13;;;17.38;;
16870;SDS011;8552;48.120;-1.456;2023-03-03T12:06:52;28.73;;;19.30;;
16870;SDS011;8552;48.120;-1.456;2023-03-03T12:12:29;30.23;;;19.48;;
16870;SDS011;8552;48.120;-1.456;2023-03-03T12:23:56;31.23;;;18.98;;
16870;SDS011;8552;48.120;-1.456;2023-03-03T12:26:36;26.35;;;17.85;;
16870;SDS011;8552;48.120;-1.456;2023-03-03T12:29:12;28.90;;;17.55;;
16870;SDS011;8552;48.120;-1.456;2023-03-03T12:32:02;27.50;;;18.17;;
16870;SDS011;8552;48.120;-1.456;2023-03-03T12:34:57;24.70;;;17.75;;
16870;SDS011;8552;48.120;-1.456;2023-03-03T12:40:15;32.35;;;19.92;;
16870;SDS011;8552;48.120;-1.456;2023-03-03T12:53:55;25.60;;;17.27;;
16870;SDS011;8552;48.120;-1.456;2023-03-03T12:56:47;21.98;;;15.93;;
16870;SDS011;8552;48.120;-1.456;2023-03-03T13:04:41;21.55;;;15.82;;
16870;SDS011;8552;48.120;-1.456;2023-03-03T13:12:58;23.75;;;17.02;;
16870;SDS011;8552;48.120;-1.456;2023-03-03T13:15:34;22.17;;;15.98;;
16870;SDS011;8552;48.120;-1.456;2023-03-03T13:26:17;23.63;;;16.55;;
16870;SDS011;8552;48.120;-1.456;2023-03-03T13:31:38;23.63;;;17.45;;
16870;SDS011;8552;48.120;-1.456;2023-03-03T13:34:13;23.00;;;16.88;;
16870;SDS011;8552;48.120;-1.456;2023-03-03T13:43:16;22.83;;;17.02;;
16870;SDS011;8552;48.120;-1.456;2023-03-03T13:45:22;24.08;;;16.60;;
16870;SDS011;8552;48.120;-1.456;2023-03-03T13:48:06;26.83;;;17.60;;
16870;SDS011;8552;48.120;-1.456;2023-03-03T13:50:50;22.80;;;16.63;;
16870;SDS011;8552;48.120;-1.456;2023-03-03T13:53:27;23.80;;;16.65;;
16870;SDS011;8552;48.120;-1.456;2023-03-03T13:58:45;22.15;;;17.15;;
16870;SDS011;8552;48.120;-1.456;2023-03-03T14:01:41;23.30;;;17.27;;
16870;SDS011;8552;48.120;-1.456;2023-03-03T14:04:46;25.42;;;18.17;;
16870;SDS011;8552;48.120;-1.456;2023-03-03T14:07:21;26.45;;;18.90;;
16870;SDS011;8552;48.120;-1.456;2023-03-03T14:10:02;25.30;;;18.90;;
16870;SDS011;8552;48.120;-1.456;2023-03-03T14:12:39;24.05;;;17.85;;
16870;SDS011;8552;48.120;-1.456;2023-03-03T14:20:38;25.55;;;18.55;;
16870;SDS011;8552;48.120;-1.456;2023-03-03T14:23:12;23.60;;;16.73;;
16870;SDS011;8552;48.120;-1.456;2023-03-03T14:25:59;19.20;;;15.70;;
16870;SDS011;8552;48.120;-1.456;2023-03-03T14:28:44;21.45;;;16.13;;
16870;SDS011;8552;48.120;-1.456;2023-03-03T14:31:25;23.52;;;17.00;;
16870;SDS011;8552;48.120;-1.456;2023-03-03T14:33:57;22.85;;;17.45;;
16870;SDS011;8552;48.120;-1.456;2023-03-03T14:36:31;22.92;;;17.92;;
16870;SDS011;8552;48.120;-1.456;2023-03-03T14:39:00;21.90;;;17.42;;
16870;SDS011;8552;48.120;-1.456;2023-03-03T14:41:38;19.42;;;14.70;;
16870;SDS011;8552;48.120;-1.456;2023-03-03T14:44:49;18.17;;;11.70;;
16870;SDS011;8552;48.120;-1.456;2023-03-03T14:47:11;19.52;;;12.70;;
16870;SDS011;8552;48.120;-1.456;2023-03-03T14:49:50;15.27;;;11.60;;
16870;SDS011;8552;48.120;-1.456;2023-03-03T14:52:20;23.42;;;16.05;;
16870;SDS011;8552;48.120;-1.456;2023-03-03T14:54:52;18.50;;;12.98;;
16870;SDS011;8552;48.120;-1.456;2023-03-03T14:57:37;21.70;;;13.32;;
16870;SDS011;8552;48.120;-1.456;2023-03-03T15:02:42;14.25;;;10.02;;
16870;SDS011;8552;48.120;-1.456;2023-03-03T15:05:26;16.38;;;10.48;;
16870;SDS011;8552;48.120;-1.456;2023-03-03T15:10:29;13.77;;;10.90;;
16870;SDS011;8552;48.120;-1.456;2023-03-03T15:12:54;16.45;;;10.10;;
16870;SDS011;8552;48.120;-1.456;2023-03-03T15:15:21;16.75;;;11.77;;
16870;SDS011;8552;48.120;-1.456;2023-03-03T15:23:08;15.18;;;10.77;;
16870;SDS011;8552;48.120;-1.456;2023-03-03T15:28:38;11.63;;;8.40;;
16870;SDS011;8552;48.120;-1.456;2023-03-03T15:39:25;11.52;;;7.75;;
16870;SDS011;8552;48.120;-1.456;2023-03-03T15:47:23;11.38;;;8.50;;
16870;SDS011;8552;48.120;-1.456;2023-03-03T15:50:25;10.57;;;7.20;;
16870;SDS011;8552;48.120;-1.456;2023-03-03T16:01:31;9.75;;;7.18;;
16870;SDS011;8552;48.120;-1.456;2023-03-03T16:04:12;10.82;;;8.10;;
16870;SDS011;8552;48.120;-1.456;2023-03-03T16:15:06;9.52;;;6.35;;
16870;SDS011;8552;48.120;-1.456;2023-03-03T16:20:26;9.07;;;6.35;;
16870;SDS011;8552;48.120;-1.456;2023-03-03T16:32:00;10.63;;;8.05;;
16870;SDS011;8552;48.120;-1.456;2023-03-03T16:34:44;12.75;;;7.70;;
16870;SDS011;8552;48.120;-1.456;2023-03-03T16:42:28;8.80;;;6.03;;
16870;SDS011;8552;48.120;-1.456;2023-03-03T16:53:14;11.63;;;6.40;;
16870;SDS011;8552;48.120;-1.456;2023-03-03T17:04:42;8.80;;;5.50;;
16870;SDS011;8552;48.120;-1.456;2023-03-03T17:21:31;7.45;;;4.95;;
16870;SDS011;8552;48.120;-1.456;2023-03-03T17:24:50;6.60;;;4.43;;
16870;SDS011;8552;48.120;-1.456;2023-03-03T17:43:23;8.45;;;5.50;;
16870;SDS011;8552;48.120;-1.456;2023-03-03T17:46:03;9.35;;;5.70;;
16870;SDS011;8552;48.120;-1.456;2023-03-03T17:51:50;10.98;;;7.22;;
16870;SDS011;8552;48.120;-1.456;2023-03-03T17:54:29;12.00;;;8.50;;
16870;SDS011;8552;48.120;-1.456;2023-03-03T18:10:36;10.45;;;5.65;;
16870;SDS011;8552;48.120;-1.456;2023-03-03T18:21:56;15.45;;;10.65;;
16870;SDS011;8552;48.120;-1.456;2023-03-03T18:27:12;12.90;;;10.07;;
16870;SDS011;8552;48.120;-1.456;2023-03-03T18:30:21;16.45;;;9.98;;
16870;SDS011;8552;48.120;-1.456;2023-03-03T18:40:51;16.75;;;7.32;;
16870;SDS011;8552;48.120;-1.456;2023-03-03T18:48:48;15.55;;;9.15;;
16870;SDS011;8552;48.120;-1.456;2023-03-03T19:02:10;13.55;;;10.23;;
16870;SDS011;8552;48.120;-1.456;2023-03-03T19:16:03;14.00;;;10.73;;
16870;SDS011;8552;48.120;-1.456;2023-03-03T19:18:34;12.32;;;9.13;;
16870;SDS011;8552;48.120;-1.456;2023-03-03T19:21:19;8.48;;;6.95;;
16870;SDS011;8552;48.120;-1.456;2023-03-03T19:31:42;9.77;;;7.00;;
16870;SDS011;8552;48.120;-1.456;2023-03-03T19:34:12;11.70;;;8.63;;
16870;SDS011;8552;48.120;-1.456;2023-03-03T19:51:26;16.17;;;10.10;;
16870;SDS011;8552;48.120;-1.456;2023-03-03T19:56:53;25.80;;;16.65;;
16870;SDS011;8552;48.120;-1.456;2023-03-03T19:59:42;22.50;;;14.87;;
16870;SDS011;8552;48.120;-1.456;2023-03-03T20:02:23;15.00;;;10.67;;
16870;SDS011;8552;48.120;-1.456;2023-03-03T20:13:48;15.13;;;7.97;;
16870;SDS011;8552;48.120;-1.456;2023-03-03T20:27:23;17.57;;;9.57;;
16870;SDS011;8552;48.120;-1.456;2023-03-03T20:30:08;32.57;;;23.23;;
16870;SDS011;8552;48.120;-1.456;2023-03-03T20:45:57;21.23;;;14.90;;
16870;SDS011;8552;48.120;-1.456;2023-03-03T20:59:49;22.20;;;12.77;;
16870;SDS011;8552;48.120;-1.456;2023-03-03T21:07:52;16.23;;;10.83;;
16870;SDS011;8552;48.120;-1.456;2023-03-03T21:12:56;18.47;;;12.07;;
16870;SDS011;8552;48.120;-1.456;2023-03-03T21:15:32;17.37;;;12.97;;
16870;SDS011;8552;48.120;-1.456;2023-03-03T21:17:59;14.53;;;9.27;;
16870;SDS011;8552;48.120;-1.456;2023-03-03T21:20:47;19.60;;;12.07;;
16870;SDS011;8552;48.120;-1.456;2023-03-03T21:23:14;20.77;;;14.47;;
16870;SDS011;8552;48.120;-1.456;2023-03-03T21:25:44;15.90;;;12.20;;
16870;SDS011;8552;48.120;-1.456;2023-03-03T21:33:42;25.63;;;13.57;;
16870;SDS011;8552;48.120;-1.456;2023-03-03T21:38:47;19.27;;;14.40;;
16870;SDS011;8552;48.120;-1.456;2023-03-03T21:41:14;23.37;;;15.67;;
16870;SDS011;8552;48.120;-1.456;2023-03-03T21:43:48;22.27;;;14.10;;
16870;SDS011;8552;48.120;-1.456;2023-03-03T21:46:18;15.50;;;10.53;;
16870;SDS011;8552;48.120;-1.456;2023-03-03T21:48:48;12.07;;;7.63;;
16870;SDS011;8552;48.120;-1.456;2023-03-03T21:51:15;11.77;;;7.87;;
16870;SDS011;8552;48.120;-1.456;2023-03-03T21:53:41;22.73;;;16.00;;
16870;SDS011;8552;48.120;-1.456;2023-03-03T21:56:08;14.47;;;10.93;;
16870;SDS011;8552;48.120;-1.456;2023-03-03T21:58:34;17.57;;;10.47;;
16870;SDS011;8552;48.120;-1.456;2023-03-03T22:01:02;18.77;;;10.57;;
16870;SDS011;8552;48.120;-1.456;2023-03-03T22:03:29;19.37;;;11.77;;
16870;SDS011;8552;48.120;-1.456;2023-03-03T22:05:54;13.67;;;10.27;;
16870;SDS011;8552;48.120;-1.456;2023-03-03T22:08:21;17.70;;;11.07;;
16870;SDS011;8552;48.120;-1.456;2023-03-03T22:10:48;15.00;;;9.50;;
16870;SDS011;8552;48.120;-1.456;2023-03-03T22:13:21;11.63;;;7.80;;
16870;SDS011;8552;48.120;-1.456;2023-03-03T22:15:48;10.83;;;7.90;;
16870;SDS011;8552;48.120;-1.456;2023-03-03T22:18:13;12.97;;;7.90;;
16870;SDS011;8552;48.120;-1.456;2023-03-03T22:20:42;12.23;;;8.53;;